Time;durP1;ratioP1;P1;durP2;ratioP2;P2;SDS_P1;SDS_P2;PMS_P1;PMS_P2;Temp;Humidity;BMP_temperature;BMP_pressure;BME280_temperature;BME280_humidity;BME280_pressure;Samples;Min_cycle;Max_cycle;Signal;HPM_P1;HPM_P2
2023/12/08 00:01:38;;;;;;;153.05;90.82;;;10.90;99.90;;;;;;5032004;28;20520;-68
2023/12/08 00:04:04;;;;;;;132.48;98.68;;;10.90;99.90;;;;;;5031142;28;20049;-67
2023/12/08 00:06:31;;;;;;;153.15;100.55;;;10.90;99.90;;;;;;5033231;28;20359;-68
2023/12/08 00:08:57;;;;;;;162.18;97.55;;;10.90;99.90;;;;;;5033834;28;20037;-68
2023/12/08 00:11:23;;;;;;;131.68;93.15;;;10.90;99.90;;;;;;5032694;28;20037;-68
2023/12/08 00:13:49;;;;;;;158.60;99.47;;;10.90;99.90;;;;;;5031801;28;20041;-68
2023/12/08 00:16:15;;;;;;;130.38;89.93;;;10.90;99.90;;;;;;5032029;28;20041;-68
2023/12/08 00:18:41;;;;;;;132.02;82.22;;;11.00;99.90;;;;;;5031779;28;20061;-68
2023/12/08 00:21:07;;;;;;;131.00;83.63;;;10.90;99.90;;;;;;5032264;28;20029;-68
2023/12/08 00:23:34;;;;;;;131.48;89.82;;;10.90;99.90;;;;;;5032860;28;20371;-68
2023/12/08 00:26:00;;;;;;;137.07;86.70;;;10.90;99.90;;;;;;5031686;28;20234;-68
2023/12/08 00:28:26;;;;;;;133.38;81.03;;;10.90;99.90;;;;;;5033592;28;20363;-67
2023/12/08 00:30:52;;;;;;;141.57;82.28;;;10.90;99.90;;;;;;5032166;28;20045;-68
2023/12/08 00:33:19;;;;;;;136.52;89.97;;;10.90;99.90;;;;;;5032356;28;20433;-68
2023/12/08 00:35:45;;;;;;;138.43;84.38;;;10.90;99.90;;;;;;5032035;28;20041;-68
2023/12/08 00:38:11;;;;;;;147.23;88.25;;;10.90;99.90;;;;;;5031957;28;20072;-68
2023/12/08 00:40:37;;;;;;;126.85;85.75;;;10.90;99.90;;;;;;5031748;28;20040;-68
2023/12/08 00:43:03;;;;;;;126.07;79.85;;;10.90;99.90;;;;;;5031478;28;20037;-67
2023/12/08 00:45:29;;;;;;;139.40;78.00;;;10.90;99.90;;;;;;5031561;28;20740;-68
2023/12/08 00:47:55;;;;;;;134.65;79.43;;;10.90;99.90;;;;;;5031751;28;20044;-68
2023/12/08 00:50:21;;;;;;;137.30;77.47;;;10.90;99.90;;;;;;5031797;28;20048;-68
2023/12/08 00:52:47;;;;;;;141.02;71.20;;;10.90;99.90;;;;;;5032940;28;20029;-68
2023/12/08 00:55:13;;;;;;;159.75;82.65;;;10.80;99.90;;;;;;5031533;28;20115;-68
2023/12/08 00:57:40;;;;;;;140.77;96.20;;;10.80;99.90;;;;;;5032015;28;20044;-68
2023/12/08 01:00:06;;;;;;;138.52;97.07;;;10.80;99.90;;;;;;5031212;28;20534;-68
2023/12/08 01:02:32;;;;;;;146.27;86.00;;;10.80;99.90;;;;;;5027501;28;20042;-68
2023/12/08 01:04:58;;;;;;;154.40;95.18;;;10.80;99.90;;;;;;5031602;28;20045;-68
2023/12/08 01:07:24;;;;;;;150.63;94.70;;;10.80;99.90;;;;;;5030958;28;20034;-68
2023/12/08 01:09:51;;;;;;;138.85;97.95;;;10.80;99.90;;;;;;5030777;28;20040;-68
2023/12/08 01:12:17;;;;;;;150.63;107.05;;;10.80;99.90;;;;;;5031002;28;20466;-68
2023/12/08 01:14:43;;;;;;;179.13;135.35;;;10.80;99.90;;;;;;5031210;28;20044;-67
2023/12/08 01:17:09;;;;;;;143.45;87.95;;;10.70;99.90;;;;;;5031409;28;20057;-68
2023/12/08 01:19:35;;;;;;;144.82;87.50;;;10.80;99.90;;;;;;5031736;28;20029;-68
2023/12/08 01:22:01;;;;;;;154.10;76.75;;;10.80;99.90;;;;;;5029712;28;20076;-68
2023/12/08 01:24:27;;;;;;;153.32;81.88;;;10.80;99.90;;;;;;5031293;28;20045;-68
2023/12/08 01:26:53;;;;;;;130.52;79.82;;;10.80;99.90;;;;;;5031255;28;20025;-68
2023/12/08 01:29:19;;;;;;;144.90;90.38;;;10.80;99.90;;;;;;5031674;28;20021;-68
2023/12/08 01:31:45;;;;;;;130.18;91.22;;;10.80;99.90;;;;;;5028954;28;20263;-68
2023/12/08 01:34:11;;;;;;;134.38;75.85;;;10.80;99.90;;;;;;5031009;28;20060;-68
2023/12/08 01:36:37;;;;;;;136.43;75.93;;;10.80;99.90;;;;;;5028243;28;20463;-68
2023/12/08 01:39:03;;;;;;;120.32;75.28;;;10.80;99.90;;;;;;5026863;28;20034;-68
2023/12/08 01:41:30;;;;;;;139.98;84.63;;;10.80;99.90;;;;;;5031975;28;20105;-68
2023/12/08 01:43:56;;;;;;;139.15;81.78;;;10.80;99.90;;;;;;5031515;28;20061;-68
2023/12/08 01:46:22;;;;;;;118.30;76.68;;;10.70;99.90;;;;;;5027195;28;20048;-68
2023/12/08 01:48:48;;;;;;;125.63;80.00;;;10.70;99.90;;;;;;5024645;28;20038;-68
2023/12/08 01:51:14;;;;;;;134.05;95.65;;;10.70;99.90;;;;;;5029543;28;20038;-68
2023/12/08 01:53:40;;;;;;;138.07;88.53;;;10.70;99.90;;;;;;5030172;28;20049;-68
2023/12/08 01:56:07;;;;;;;114.15;82.93;;;10.70;99.90;;;;;;5029965;28;20041;-68
2023/12/08 01:58:34;;;;;;;135.40;83.53;;;10.80;99.90;;;;;;5029235;28;20025;-67
2023/12/08 02:01:02;;;;;;;109.22;95.38;;;10.80;99.90;;;;;;5006630;28;20030;-68
2023/12/08 02:03:28;;;;;;;106.75;95.20;;;10.80;99.90;;;;;;5010093;28;20048;-68
2023/12/08 02:05:54;;;;;;;93.07;83.55;;;10.80;99.90;;;;;;5029770;28;20045;-68
2023/12/08 02:08:20;;;;;;;95.55;85.32;;;10.80;99.90;;;;;;5029771;28;20037;-68
2023/12/08 02:10:47;;;;;;;121.80;95.88;;;10.80;99.90;;;;;;5030276;28;20048;-68
2023/12/08 02:13:16;;;;;;;109.00;97.20;;;10.70;99.90;;;;;;5030423;28;20034;-68
2023/12/08 02:15:46;;;;;;;138.60;110.68;;;10.70;99.90;;;;;;5029668;28;20038;-68
2023/12/08 02:18:13;;;;;;;136.20;98.07;;;10.70;99.90;;;;;;5032170;28;20041;-67
2023/12/08 02:20:41;;;;;;;133.25;110.97;;;10.60;99.90;;;;;;5033366;28;20036;-68
2023/12/08 02:23:07;;;;;;;122.90;95.90;;;10.60;99.90;;;;;;5034085;28;20029;-68
2023/12/08 02:25:34;;;;;;;134.00;98.78;;;10.60;99.90;;;;;;5035220;28;20500;-68
2023/12/08 02:28:06;;;;;;;143.85;116.45;;;10.50;99.90;;;;;;5034088;28;20041;-68
2023/12/08 02:30:32;;;;;;;123.45;106.45;;;10.50;99.90;;;;;;5029497;28;20410;-67
2023/12/08 02:33:03;;;;;;;116.07;104.28;;;10.50;99.90;;;;;;5021898;28;20050;-68
2023/12/08 02:35:30;;;;;;;114.93;93.00;;;10.50;99.90;;;;;;5030711;28;20056;-67
2023/12/08 02:37:56;;;;;;;110.63;99.05;;;10.50;99.90;;;;;;5021092;28;20042;-68
2023/12/08 02:40:22;;;;;;;131.57;101.80;;;10.50;99.90;;;;;;5030993;28;20056;-67
2023/12/08 02:42:48;;;;;;;136.27;98.75;;;10.40;99.90;;;;;;5032876;28;20041;-68
2023/12/08 02:45:14;;;;;;;138.13;112.88;;;10.40;99.90;;;;;;5032208;28;20049;-68
2023/12/08 02:47:40;;;;;;;140.20;96.95;;;10.30;99.90;;;;;;5034276;28;20034;-68
2023/12/08 02:50:06;;;;;;;151.77;109.10;;;10.30;99.90;;;;;;5033302;28;20033;-68
2023/12/08 02:52:32;;;;;;;121.32;96.85;;;10.30;99.90;;;;;;5034123;28;20029;-68
2023/12/08 02:54:58;;;;;;;145.07;81.93;;;10.30;99.90;;;;;;5034486;28;20048;-68
2023/12/08 02:57:24;;;;;;;159.93;87.20;;;10.20;99.90;;;;;;5034673;28;20037;-68
2023/12/08 02:59:50;;;;;;;164.50;108.63;;;10.30;99.90;;;;;;5033114;28;20030;-68
2023/12/08 03:02:17;;;;;;;158.75;126.68;;;10.30;99.90;;;;;;5031927;28;20037;-68
2023/12/08 03:04:43;;;;;;;141.07;119.13;;;10.20;99.90;;;;;;5034536;28;20038;-67
2023/12/08 03:07:09;;;;;;;139.50;106.55;;;10.30;99.90;;;;;;5033672;28;20056;-68
2023/12/08 03:09:35;;;;;;;157.02;115.55;;;10.30;99.90;;;;;;5034810;28;20064;-68
2023/12/08 03:12:01;;;;;;;147.43;101.30;;;10.30;99.90;;;;;;5033037;28;20034;-68
2023/12/08 03:14:27;;;;;;;136.02;94.15;;;10.30;99.90;;;;;;5034683;28;20056;-68
2023/12/08 03:16:53;;;;;;;141.95;93.55;;;10.20;99.90;;;;;;5033202;28;20037;-68
2023/12/08 03:19:19;;;;;;;159.70;95.95;;;10.30;99.90;;;;;;5032901;28;20056;-67
2023/12/08 03:21:45;;;;;;;131.55;89.72;;;10.30;99.90;;;;;;5032643;28;20037;-68
2023/12/08 03:24:11;;;;;;;124.38;87.68;;;10.40;99.90;;;;;;5034429;28;20405;-67
2023/12/08 03:26:38;;;;;;;117.32;84.57;;;10.40;99.90;;;;;;5032836;28;20109;-67
2023/12/08 03:29:04;;;;;;;107.97;83.95;;;10.40;99.90;;;;;;5032876;28;20559;-67
2023/12/08 03:31:30;;;;;;;112.43;92.05;;;10.40;99.90;;;;;;5030901;28;20049;-68
2023/12/08 03:33:57;;;;;;;174.02;103.22;;;10.40;99.90;;;;;;5033763;28;20486;-68
2023/12/08 03:36:23;;;;;;;138.98;110.97;;;10.40;99.90;;;;;;5032544;28;20667;-67
2023/12/08 03:38:49;;;;;;;137.50;112.85;;;10.40;99.90;;;;;;5034343;28;20034;-68
2023/12/08 03:41:15;;;;;;;129.70;99.45;;;10.40;99.90;;;;;;5033112;28;20474;-68
2023/12/08 03:43:41;;;;;;;174.52;113.78;;;10.40;99.90;;;;;;5033251;28;20037;-68
2023/12/08 03:46:07;;;;;;;162.10;106.90;;;10.40;99.90;;;;;;5033237;28;20413;-68
2023/12/08 03:48:36;;;;;;;112.63;102.95;;;10.40;99.90;;;;;;5032101;28;20033;-68
2023/12/08 03:51:04;;;;;;;111.35;97.85;;;10.40;99.90;;;;;;5031522;28;20036;-67
2023/12/08 03:53:31;;;;;;;140.40;125.35;;;10.40;99.90;;;;;;5032755;28;20096;-68
2023/12/08 03:55:57;;;;;;;143.60;129.57;;;10.40;99.90;;;;;;5033745;28;20466;-68
2023/12/08 03:58:23;;;;;;;120.63;98.22;;;10.40;99.90;;;;;;5033392;28;20034;-68
2023/12/08 04:00:49;;;;;;;134.48;91.80;;;10.40;99.90;;;;;;5028700;28;20045;-68
2023/12/08 04:03:15;;;;;;;107.38;95.68;;;10.30;99.90;;;;;;5023967;28;20037;-68
2023/12/08 04:05:41;;;;;;;127.25;94.18;;;10.30;99.90;;;;;;5026282;28;20049;-68
2023/12/08 04:08:07;;;;;;;140.77;82.05;;;10.30;99.90;;;;;;5033321;28;20036;-68
2023/12/08 04:10:33;;;;;;;90.53;81.85;;;10.30;99.90;;;;;;5032061;28;20033;-67
2023/12/08 04:12:59;;;;;;;83.93;76.75;;;10.30;99.90;;;;;;5033613;28;20033;-68
2023/12/08 04:15:25;;;;;;;215.40;77.60;;;10.30;99.90;;;;;;5032419;28;20037;-68
2023/12/08 04:17:51;;;;;;;196.23;83.80;;;10.30;99.90;;;;;;5028992;28;20039;-68
2023/12/08 04:20:18;;;;;;;98.88;89.95;;;10.30;99.90;;;;;;5025863;28;20036;-68
2023/12/08 04:22:44;;;;;;;107.95;84.32;;;10.30;99.90;;;;;;5024671;28;20036;-68
2023/12/08 04:25:12;;;;;;;76.75;70.75;;;10.20;99.90;;;;;;5013873;28;20053;-68
2023/12/08 04:27:38;;;;;;;78.75;73.22;;;10.20;99.90;;;;;;5031151;28;20032;-68
2023/12/08 04:30:05;;;;;;;91.15;84.30;;;10.20;99.90;;;;;;5032312;28;20413;-68
2023/12/08 04:32:32;;;;;;;86.88;77.88;;;10.20;99.90;;;;;;5031355;28;20045;-68
2023/12/08 04:34:58;;;;;;;102.57;94.20;;;10.20;99.90;;;;;;5025366;28;20038;-68
2023/12/08 04:37:24;;;;;;;81.28;75.03;;;10.20;99.90;;;;;;5024625;28;20065;-68
2023/12/08 04:39:50;;;;;;;89.53;83.82;;;10.20;99.90;;;;;;5013319;28;20053;-68
2023/12/08 04:42:16;;;;;;;122.65;99.20;;;10.20;99.90;;;;;;5030186;28;20030;-68
2023/12/08 04:44:43;;;;;;;165.38;95.90;;;10.10;99.90;;;;;;5018458;28;20041;-68
2023/12/08 04:47:09;;;;;;;152.88;106.68;;;10.10;99.90;;;;;;5028684;28;20029;-68
2023/12/08 04:49:36;;;;;;;121.50;95.70;;;10.00;99.90;;;;;;5032810;28;20440;-67
2023/12/08 04:52:02;;;;;;;97.88;84.93;;;9.90;99.90;;;;;;5027248;28;20046;-68
2023/12/08 04:54:28;;;;;;;145.10;69.25;;;9.90;99.90;;;;;;5032970;28;20466;-67
2023/12/08 04:56:54;;;;;;;74.57;61.28;;;9.90;99.90;;;;;;5032431;28;20029;-68
2023/12/08 04:59:20;;;;;;;132.40;100.72;;;9.80;99.90;;;;;;5032903;28;20040;-68
2023/12/08 05:01:50;;;;;;;76.07;71.30;;;9.80;99.90;;;;;;5030843;28;20045;-68
2023/12/08 05:04:17;;;;;;;77.97;72.97;;;9.80;99.90;;;;;;5030821;28;20048;-68
2023/12/08 05:06:44;;;;;;;93.03;80.90;;;9.80;99.90;;;;;;5032495;28;20057;-67
2023/12/08 05:09:10;;;;;;;67.63;61.60;;;9.70;99.90;;;;;;5032774;28;20033;-68
2023/12/08 05:11:36;;;;;;;89.32;79.55;;;9.80;99.90;;;;;;5022617;28;20042;-68
2023/12/08 05:14:03;;;;;;;59.47;55.20;;;9.70;99.90;;;;;;5013284;28;20048;-67
2023/12/08 05:16:29;;;;;;;68.20;63.70;;;9.70;99.90;;;;;;5020966;28;20501;-68
2023/12/08 05:18:55;;;;;;;70.85;62.15;;;9.70;99.90;;;;;;5032474;28;20025;-68
2023/12/08 05:21:21;;;;;;;67.10;62.58;;;9.70;99.90;;;;;;5031302;28;20424;-68
2023/12/08 05:23:48;;;;;;;87.05;81.93;;;9.60;99.90;;;;;;5029155;28;20040;-68
2023/12/08 05:26:14;;;;;;;96.47;84.38;;;9.60;99.90;;;;;;5024218;28;20483;-67
2023/12/08 05:28:40;;;;;;;124.95;78.95;;;9.70;99.90;;;;;;5032308;28;20029;-67
2023/12/08 05:31:06;;;;;;;142.00;95.95;;;9.70;99.90;;;;;;5027683;28;20033;-67
2023/12/08 05:33:32;;;;;;;129.48;99.10;;;9.70;99.90;;;;;;5030795;28;20056;-68
2023/12/08 05:35:58;;;;;;;93.88;84.45;;;9.70;99.90;;;;;;5029974;28;20026;-68
2023/12/08 05:38:24;;;;;;;81.78;76.55;;;9.70;99.90;;;;;;5032508;28;20029;-68
2023/12/08 05:40:50;;;;;;;64.38;59.28;;;9.70;99.90;;;;;;5031365;28;20482;-68
2023/12/08 05:43:16;;;;;;;87.05;78.95;;;9.70;99.90;;;;;;5032248;28;20027;-68
2023/12/08 05:45:42;;;;;;;71.75;67.25;;;9.70;99.90;;;;;;5030473;28;20049;-68
2023/12/08 05:48:09;;;;;;;141.50;99.32;;;9.70;99.90;;;;;;5012464;28;20030;-68
2023/12/08 05:50:35;;;;;;;103.70;77.53;;;9.70;99.90;;;;;;5026419;28;20374;-68
2023/12/08 05:53:01;;;;;;;115.43;80.10;;;9.70;99.90;;;;;;5014058;28;20041;-68
2023/12/08 05:55:27;;;;;;;73.68;68.97;;;9.70;99.90;;;;;;5013718;28;20467;-68
2023/12/08 05:57:53;;;;;;;67.47;60.40;;;9.70;99.90;;;;;;5011244;28;20030;-69
2023/12/08 06:00:20;;;;;;;116.93;74.20;;;9.70;99.90;;;;;;5011455;28;20030;-68
2023/12/08 06:02:46;;;;;;;77.90;71.00;;;9.70;99.90;;;;;;5023745;28;20394;-68
2023/12/08 06:05:13;;;;;;;97.90;88.90;;;9.70;99.90;;;;;;5011946;28;20052;-68
2023/12/08 06:07:39;;;;;;;78.18;70.05;;;9.70;99.90;;;;;;5012337;28;20034;-69
2023/12/08 06:10:08;;;;;;;98.05;89.20;;;9.60;99.90;;;;;;5011058;28;20033;-67
2023/12/08 06:12:35;;;;;;;76.40;69.22;;;9.70;99.90;;;;;;5026288;28;20041;-68
2023/12/08 06:15:01;;;;;;;115.28;61.00;;;9.60;99.90;;;;;;5031755;28;20032;-67
2023/12/08 06:17:27;;;;;;;68.15;63.00;;;9.50;99.90;;;;;;5029333;28;20045;-67
2023/12/08 06:19:54;;;;;;;79.30;70.78;;;9.60;99.90;;;;;;5031752;28;20044;-67
2023/12/08 06:22:20;;;;;;;80.40;70.40;;;9.60;99.90;;;;;;5030612;28;20045;-67
2023/12/08 06:24:46;;;;;;;77.30;69.15;;;9.60;99.90;;;;;;5031681;28;20466;-67
2023/12/08 06:27:12;;;;;;;62.45;56.78;;;9.60;99.90;;;;;;5013632;28;20057;-67
2023/12/08 06:29:38;;;;;;;1231.50;130.43;;;9.70;99.90;;;;;;5012615;28;20398;-67
2023/12/08 06:32:05;;;;;;;97.22;52.38;;;9.70;99.90;;;;;;5030864;28;20044;-67
2023/12/08 06:34:31;;;;;;;61.72;56.97;;;9.70;99.90;;;;;;5031234;28;20050;-67
2023/12/08 06:36:57;;;;;;;57.08;52.17;;;9.70;99.90;;;;;;5015530;28;20041;-67
2023/12/08 06:39:23;;;;;;;70.47;65.13;;;9.70;99.90;;;;;;5029811;28;20040;-67
2023/12/08 06:41:49;;;;;;;130.63;120.97;;;9.50;99.90;;;;;;5030675;28;20052;-67
2023/12/08 06:44:15;;;;;;;90.38;83.60;;;9.40;99.90;;;;;;5029098;28;20402;-67
2023/12/08 06:46:44;;;;;;;360.17;106.43;;;9.50;99.90;;;;;;5029506;28;20049;-68
2023/12/08 06:49:10;;;;;;;130.60;120.78;;;9.40;99.90;;;;;;5029404;28;20030;-67
2023/12/08 06:51:37;;;;;;;121.43;111.40;;;9.40;99.90;;;;;;5030545;28;20044;-67
2023/12/08 06:54:04;;;;;;;134.65;124.22;;;9.50;99.90;;;;;;5031485;28;20389;-67
2023/12/08 06:56:30;;;;;;;132.63;122.65;;;9.50;99.90;;;;;;5028677;28;20394;-67
2023/12/08 06:58:56;;;;;;;134.45;123.63;;;9.50;99.90;;;;;;5031496;28;20030;-67
2023/12/08 07:01:23;;;;;;;132.45;122.18;;;9.60;99.90;;;;;;5030608;28;20045;-67
2023/12/08 07:03:49;;;;;;;117.65;108.13;;;9.60;99.90;;;;;;5031973;28;20033;-67
2023/12/08 07:06:15;;;;;;;129.77;119.10;;;9.70;99.90;;;;;;5029793;28;20042;-67
2023/12/08 07:08:41;;;;;;;134.02;124.40;;;9.70;99.90;;;;;;5034140;28;20033;-68
2023/12/08 07:11:08;;;;;;;113.28;104.28;;;9.90;99.90;;;;;;5032797;28;20410;-67
2023/12/08 07:13:35;;;;;;;137.63;128.20;;;9.90;99.90;;;;;;5034938;28;20113;-67
2023/12/08 07:16:02;;;;;;;155.65;145.07;;;9.90;99.90;;;;;;5021764;28;20034;-67
2023/12/08 07:18:28;;;;;;;144.93;135.10;;;9.90;99.90;;;;;;5031619;28;20025;-68
2023/12/08 07:20:54;;;;;;;152.15;141.23;;;9.90;99.90;;;;;;5034657;28;20038;-67
2023/12/08 07:23:20;;;;;;;121.70;112.97;;;9.90;99.90;;;;;;5031740;28;20033;-67
2023/12/08 07:25:46;;;;;;;133.70;124.38;;;9.90;99.90;;;;;;5027652;28;20041;-67
2023/12/08 07:28:12;;;;;;;111.25;102.88;;;9.90;99.90;;;;;;5034023;28;20025;-68
2023/12/08 07:30:38;;;;;;;96.30;88.85;;;9.90;99.90;;;;;;5033459;28;20029;-68
2023/12/08 07:33:04;;;;;;;100.63;93.30;;;9.90;99.90;;;;;;5034209;28;20498;-67
2023/12/08 07:35:31;;;;;;;98.65;90.97;;;10.00;99.90;;;;;;5031228;28;20474;-68
2023/12/08 07:37:57;;;;;;;85.53;78.90;;;10.00;99.90;;;;;;5022330;28;20042;-67
2023/12/08 07:40:23;;;;;;;89.28;82.18;;;10.00;99.90;;;;;;5030175;28;20033;-67
2023/12/08 07:42:49;;;;;;;81.65;75.38;;;10.00;99.90;;;;;;5034191;28;20033;-67
2023/12/08 07:45:15;;;;;;;79.60;73.95;;;10.00;99.90;;;;;;5022537;28;20395;-67
2023/12/08 07:47:41;;;;;;;91.90;85.00;;;10.00;99.90;;;;;;5014442;28;20045;-68
2023/12/08 07:50:07;;;;;;;80.60;74.57;;;10.10;99.90;;;;;;5013230;28;20038;-67
2023/12/08 07:52:34;;;;;;;127.72;118.43;;;10.10;99.90;;;;;;5024240;28;20072;-68
2023/12/08 07:55:00;;;;;;;93.65;87.25;;;10.10;99.90;;;;;;5022317;28;20463;-67
2023/12/08 07:57:26;;;;;;;106.55;99.35;;;10.10;99.90;;;;;;5018116;28;20040;-67
2023/12/08 07:59:52;;;;;;;128.85;120.10;;;10.10;99.90;;;;;;5025378;28;20393;-67
2023/12/08 08:02:18;;;;;;;101.70;93.00;;;10.10;99.90;;;;;;5021995;28;20033;-67
2023/12/08 08:04:44;;;;;;;95.28;88.68;;;10.10;99.90;;;;;;5022402;28;20040;-67
2023/12/08 08:07:10;;;;;;;75.43;63.08;;;10.10;99.90;;;;;;5024367;28;20042;-67
2023/12/08 08:09:36;;;;;;;1098.88;173.57;;;10.10;99.90;;;;;;5021376;28;20033;-67
2023/12/08 08:12:03;;;;;;;69.30;64.28;;;10.10;99.90;;;;;;5013857;28;20038;-67
2023/12/08 08:14:29;;;;;;;75.97;68.25;;;10.10;99.90;;;;;;5013527;28;20042;-67
2023/12/08 08:16:55;;;;;;;75.70;69.82;;;10.10;99.90;;;;;;5013351;28;20045;-67
2023/12/08 08:19:21;;;;;;;77.47;72.10;;;10.10;99.90;;;;;;5013823;28;20030;-67
2023/12/08 08:21:47;;;;;;;74.30;68.50;;;10.10;99.90;;;;;;5029852;28;20040;-67
2023/12/08 08:24:13;;;;;;;67.93;62.58;;;10.20;99.90;;;;;;5033178;28;20025;-67
2023/12/08 08:26:43;;;;;;;65.15;60.33;;;10.10;99.90;;;;;;5020684;28;20100;-67
2023/12/08 08:29:09;;;;;;;68.05;62.42;;;10.10;99.90;;;;;;5012519;28;20029;-68
2023/12/08 08:31:36;;;;;;;68.07;62.83;;;10.00;99.90;;;;;;5025163;28;20045;-67
2023/12/08 08:34:03;;;;;;;65.50;59.95;;;10.00;99.90;;;;;;5013490;28;20050;-67
2023/12/08 08:36:30;;;;;;;75.97;70.90;;;10.00;99.90;;;;;;5014393;28;20049;-67
2023/12/08 08:38:56;;;;;;;61.42;57.03;;;10.10;99.90;;;;;;5023513;28;20048;-67
2023/12/08 08:41:22;;;;;;;68.50;63.72;;;10.10;99.90;;;;;;5025620;28;20041;-67
2023/12/08 08:43:49;;;;;;;86.10;79.35;;;10.10;99.90;;;;;;5022192;28;20053;-68
2023/12/08 08:46:15;;;;;;;122.15;114.72;;;10.20;99.90;;;;;;5022375;28;20061;-67
2023/12/08 08:48:41;;;;;;;93.38;86.43;;;10.20;99.90;;;;;;5021345;28;20045;-68
2023/12/08 08:51:07;;;;;;;76.53;70.93;;;10.20;99.90;;;;;;5032510;28;20033;-68
2023/12/08 08:53:33;;;;;;;75.53;70.45;;;10.20;99.90;;;;;;5032628;28;20041;-67
2023/12/08 08:55:59;;;;;;;110.38;103.72;;;10.20;99.90;;;;;;5032067;28;20045;-68
2023/12/08 08:58:25;;;;;;;94.05;88.20;;;10.30;99.90;;;;;;5032814;28;20394;-67
2023/12/08 09:00:52;;;;;;;72.28;67.75;;;10.30;99.90;;;;;;5032025;28;20041;-67
2023/12/08 09:03:18;;;;;;;77.80;71.90;;;10.30;99.90;;;;;;5032867;28;20029;-67
2023/12/08 09:05:44;;;;;;;77.68;71.97;;;10.30;99.90;;;;;;5032328;28;20037;-67
2023/12/08 09:08:10;;;;;;;77.97;71.65;;;10.20;99.90;;;;;;5032573;28;20025;-68
2023/12/08 09:10:36;;;;;;;65.75;60.35;;;10.30;99.90;;;;;;5032450;28;20033;-68
2023/12/08 09:13:02;;;;;;;58.65;53.83;;;10.30;99.90;;;;;;5021524;28;20479;-67
2023/12/08 09:15:28;;;;;;;67.18;62.10;;;10.20;99.90;;;;;;5031353;28;20382;-68
2023/12/08 09:17:55;;;;;;;93.90;65.45;;;10.30;99.90;;;;;;5032341;28;20025;-67
2023/12/08 09:20:22;;;;;;;65.07;60.20;;;10.30;99.90;;;;;;5022542;28;20030;-67
2023/12/08 09:22:48;;;;;;;56.78;52.42;;;10.30;99.90;;;;;;5012501;28;20040;-67
2023/12/08 09:25:14;;;;;;;62.13;57.28;;;10.30;99.90;;;;;;5027205;28;20421;-68
2023/12/08 09:27:40;;;;;;;57.05;52.50;;;10.20;99.90;;;;;;5030734;28;20045;-68
2023/12/08 09:30:07;;;;;;;67.80;63.05;;;10.20;99.90;;;;;;5031579;28;20029;-68
2023/12/08 09:32:33;;;;;;;51.13;46.30;;;10.20;99.90;;;;;;5031969;28;20041;-68
2023/12/08 09:34:59;;;;;;;60.97;50.45;;;10.20;99.90;;;;;;5032392;28;20040;-68
2023/12/08 09:37:25;;;;;;;81.07;75.43;;;10.20;99.90;;;;;;5019652;28;20037;-68
2023/12/08 09:39:51;;;;;;;77.07;70.93;;;10.20;99.90;;;;;;5012566;28;20045;-68
2023/12/08 09:42:46;;;;;;;78.68;73.13;;;10.30;99.90;;;;;;5029384;28;20030;-67
2023/12/08 09:45:12;;;;;;;76.43;70.70;;;10.30;99.90;;;;;;4969469;28;20050;-67
2023/12/08 09:47:40;;;;;;;63.22;57.55;;;10.30;99.90;;;;;;4963791;28;20776;-68
2023/12/08 09:50:06;;;;;;;92.00;83.75;;;10.30;99.90;;;;;;4971037;28;20035;-68
2023/12/08 09:52:36;;;;;;;142.07;91.70;;;10.40;99.90;;;;;;4955033;28;20046;-67
2023/12/08 09:55:03;;;;;;;101.97;94.45;;;10.40;99.90;;;;;;4951916;29;20039;-67
2023/12/08 09:57:30;;;;;;;81.22;74.78;;;10.50;99.90;;;;;;4958804;28;20047;-68
2023/12/08 09:59:57;;;;;;;97.40;90.45;;;10.50;99.90;;;;;;4949992;28;20026;-67
2023/12/08 10:02:23;;;;;;;117.78;110.10;;;10.60;99.90;;;;;;4952612;28;20042;-68
2023/12/08 10:04:49;;;;;;;82.15;75.55;;;10.60;99.90;;;;;;4951707;29;20043;-67
2023/12/08 10:07:15;;;;;;;102.50;95.65;;;10.70;99.90;;;;;;4959663;28;20046;-68
2023/12/08 10:09:41;;;;;;;110.18;102.72;;;10.80;99.90;;;;;;4955021;28;20407;-68
2023/12/08 10:12:08;;;;;;;77.35;71.47;;;10.90;99.90;;;;;;4970446;28;20042;-68
2023/12/08 10:14:34;;;;;;;74.55;68.90;;;11.00;99.90;;;;;;4965707;28;20496;-68
2023/12/08 10:17:01;;;;;;;82.75;76.57;;;11.00;99.90;;;;;;4967994;28;20047;-68
2023/12/08 10:19:27;;;;;;;66.97;61.53;;;11.10;99.90;;;;;;4964422;28;20031;-68
2023/12/08 10:22:02;;;;;;;133.88;125.25;;;11.30;99.90;;;;;;4978198;28;20046;-68
2023/12/08 10:24:30;;;;;;;71.32;66.13;;;11.50;99.90;;;;;;5010857;28;20390;-68
2023/12/08 10:26:59;;;;;;;178.48;167.77;;;11.60;99.90;;;;;;5013157;28;20414;-68
2023/12/08 10:29:31;;;;;;;44.35;40.20;;;11.70;99.90;;;;;;5017476;28;20390;-68
2023/12/08 10:31:57;;;;;;;46.28;42.30;;;11.60;99.90;;;;;;5019675;28;20426;-68
2023/12/08 10:34:24;;;;;;;45.45;41.63;;;11.60;99.90;;;;;;5029916;28;20057;-68
2023/12/08 10:36:52;;;;;;;173.88;163.93;;;11.50;99.90;;;;;;5031316;28;20666;-68
2023/12/08 10:39:18;;;;;;;51.47;47.60;;;11.50;99.90;;;;;;5033282;28;20029;-68
2023/12/08 10:41:45;;;;;;;62.72;58.05;;;11.50;99.90;;;;;;5024506;28;20034;-68
2023/12/08 10:44:12;;;;;;;101.50;94.72;;;11.50;99.90;;;;;;5014172;28;20041;-68
2023/12/08 10:46:38;;;;;;;97.32;91.00;;;11.80;99.90;;;;;;5026640;28;20494;-68
2023/12/08 10:49:04;;;;;;;47.63;43.97;;;11.90;99.90;;;;;;5030949;28;20025;-68
2023/12/08 10:51:31;;;;;;;49.22;45.88;;;11.90;99.90;;;;;;5021957;28;20033;-68
2023/12/08 10:53:57;;;;;;;55.15;51.08;;;12.00;99.90;;;;;;5014189;28;20037;-68
2023/12/08 10:56:23;;;;;;;64.55;60.20;;;11.90;99.90;;;;;;5010481;28;20025;-68
2023/12/08 10:58:54;;;;;;;66.90;62.30;;;11.90;99.90;;;;;;5032068;28;20397;-68
2023/12/08 11:01:20;;;;;;;78.88;73.50;;;11.90;99.90;;;;;;5032521;28;20029;-69
2023/12/08 11:03:46;;;;;;;71.32;66.90;;;12.00;99.90;;;;;;5034496;28;20029;-68
2023/12/08 11:06:19;;;;;;;70.53;65.95;;;12.00;99.90;;;;;;5034627;28;20026;-68
2023/12/08 11:08:45;;;;;;;55.65;51.65;;;12.10;99.90;;;;;;5033088;28;20038;-68
2023/12/08 11:11:11;;;;;;;66.72;62.58;;;12.10;99.90;;;;;;5033537;28;20029;-68
2023/12/08 11:13:40;;;;;;;67.32;63.17;;;12.20;99.90;;;;;;5034933;28;20040;-68
2023/12/08 11:16:24;;;;;;;59.03;55.35;;;12.40;99.90;;;;;;5032856;28;20065;-68
2023/12/08 11:18:52;;;;;;;96.50;90.50;;;12.50;99.90;;;;;;5033329;28;20025;-68
2023/12/08 11:21:18;;;;;;;115.93;108.47;;;12.50;99.90;;;;;;5001158;28;20486;-68
2023/12/08 11:23:44;;;;;;;145.45;136.77;;;12.50;99.90;;;;;;5014991;28;20041;-68
2023/12/08 11:26:19;;;;;;;180.00;169.10;;;12.60;99.90;;;;;;5018635;28;20030;-68
2023/12/08 11:29:10;;;;;;;147.13;138.57;;;12.60;99.90;;;;;;5028971;28;20056;-69
2023/12/08 11:31:50;;;;;;;201.35;189.85;;;12.60;99.90;;;;;;5032825;28;20406;-68
2023/12/08 11:34:33;;;;;;;235.40;222.45;;;12.60;99.90;;;;;;5033126;28;20049;-69
2023/12/08 11:37:00;;;;;;;130.23;122.65;;;12.70;99.90;;;;;;5026102;28;20038;-69
2023/12/08 11:39:42;;;;;;;140.40;132.30;;;13.00;99.90;;;;;;5022614;28;20029;-69
2023/12/08 11:42:16;;;;;;;187.52;176.65;;;13.20;99.90;;;;;;5033198;28;20041;-68
2023/12/08 11:44:46;;;;;;;118.05;111.22;;;13.30;99.90;;;;;;5032423;28;20048;-69
2023/12/08 11:47:14;;;;;;;101.00;94.75;;;13.30;99.90;;;;;;5032112;28;20068;-68
2023/12/08 11:49:44;;;;;;;100.75;95.15;;;13.40;99.90;;;;;;5032292;28;20037;-68
2023/12/08 11:52:32;;;;;;;142.30;134.45;;;13.50;99.90;;;;;;5033583;28;20037;-68
2023/12/08 11:55:03;;;;;;;78.53;73.93;;;13.50;99.90;;;;;;5033426;28;20029;-68
2023/12/08 11:57:29;;;;;;;;;;;13.50;99.90;;;;;;5032208;28;20613;-68
2023/12/08 11:59:55;;;;;;;102.35;96.35;;;13.60;99.90;;;;;;5033441;28;19905;-68
2023/12/08 12:02:22;;;;;;;109.72;103.32;;;13.60;99.90;;;;;;5031558;28;20060;-69
2023/12/08 12:04:49;;;;;;;174.25;164.23;;;13.60;99.90;;;;;;5033506;28;20033;-68
2023/12/08 12:07:19;;;;;;;149.23;140.45;;;13.60;99.90;;;;;;5032903;28;20076;-68
2023/12/08 12:09:47;;;;;;;181.90;170.63;;;13.50;99.90;;;;;;5031024;28;20045;-69
2023/12/08 12:12:26;;;;;;;183.70;172.65;;;13.60;99.90;;;;;;5014849;28;20513;-69
2023/12/08 12:14:55;;;;;;;231.98;218.68;;;13.60;99.90;;;;;;5012335;28;20037;-68
2023/12/08 12:17:22;;;;;;;256.17;241.68;;;13.60;99.90;;;;;;5028323;28;20044;-69
2023/12/08 12:19:49;;;;;;;176.18;166.43;;;13.40;99.90;;;;;;5029446;28;20052;-68